Time;durP1;ratioP1;P1;durP2;ratioP2;P2;SDS_P1;SDS_P2;PMS_P1;PMS_P2;Temp;Humidity;BMP_temperature;BMP_pressure;BME280_temperature;BME280_humidity;BME280_pressure;Samples;Min_cycle;Max_cycle;Signal;HPM_P1;HPM_P2
2022/03/13 00:02:09;;;;;;;28.35;13.13;;;;;;;;;;4988623;28;20038;-82
2022/03/13 00:04:36;;;;;;;26.83;13.60;;;;;;;;;;4983170;28;20052;-82
2022/03/13 00:07:09;;;;;;;29.23;11.65;;;;;;;;;;4962936;28;20054;-82
2022/03/13 00:09:35;;;;;;;22.80;11.80;;;;;;;;;;4986375;28;20385;-82
2022/03/13 00:12:08;;;;;;;23.10;12.23;;;;;;;;;;4967741;28;20058;-82
2022/03/13 00:14:35;;;;;;;25.95;11.50;;;;;;;;;;4982155;28;20406;-82
2022/03/13 00:17:01;;;;;;;27.10;12.57;;;;;;;;;;4965764;28;20063;-81
2022/03/13 00:19:29;;;;;;;26.63;12.52;;;;;;;;;;4964506;28;20113;-82
2022/03/13 00:21:55;;;;;;;25.13;12.63;;;;;;;;;;4983942;28;20019;-82
2022/03/13 00:24:22;;;;;;;30.88;12.40;;;;;;;;;;4983184;28;20047;-82
2022/03/13 00:26:49;;;;;;;23.58;12.13;;;;;;;;;;4987445;28;20068;-82
2022/03/13 00:29:15;;;;;;;24.02;12.55;;;;;;;;;;4988896;28;20018;-82
2022/03/13 00:31:42;;;;;;;24.90;12.73;;;;;;;;;;5000497;28;20033;-82
2022/03/13 00:34:08;;;;;;;25.27;13.20;;;;;;;;;;4993863;28;20068;-82
2022/03/13 00:36:34;;;;;;;30.08;13.82;;;;;;;;;;4997903;28;20034;-82
2022/03/13 00:39:00;;;;;;;29.13;13.48;;;;;;;;;;4996236;28;20113;-82
2022/03/13 00:41:26;;;;;;;26.98;13.65;;;;;;;;;;4997443;28;20121;-82
2022/03/13 00:43:52;;;;;;;26.10;13.75;;;;;;;;;;5002680;28;20627;-82
2022/03/13 00:46:19;;;;;;;26.02;13.35;;;;;;;;;;4988299;28;20032;-82
2022/03/13 00:48:45;;;;;;;25.60;12.93;;;;;;;;;;4988369;28;20595;-82
2022/03/13 00:51:11;;;;;;;30.25;13.80;;;;;;;;;;5002936;28;20023;-82
2022/03/13 00:53:38;;;;;;;23.10;12.18;;;;;;;;;;4990067;28;20041;-82
2022/03/13 00:56:05;;;;;;;26.42;12.60;;;;;;;;;;5001440;28;20126;-82
2022/03/13 00:58:31;;;;;;;23.95;12.55;;;;;;;;;;5000348;28;20030;-82
2022/03/13 01:00:58;;;;;;;28.30;13.50;;;;;;;;;;5007294;28;20505;-82
2022/03/13 01:03:31;;;;;;;29.00;13.18;;;;;;;;;;5001817;28;20090;-81
2022/03/13 01:05:58;;;;;;;26.35;13.07;;;;;;;;;;4986865;28;20486;-81
2022/03/13 01:08:24;;;;;;;25.42;12.35;;;;;;;;;;4997065;28;20556;-82
2022/03/13 01:10:50;;;;;;;25.52;12.15;;;;;;;;;;5004125;28;20642;-82
2022/03/13 01:13:17;;;;;;;25.02;12.38;;;;;;;;;;4986996;28;20136;-83
2022/03/13 01:15:45;;;;;;;25.38;11.52;;;;;;;;;;4984790;28;20089;-82
2022/03/13 01:18:11;;;;;;;26.00;12.85;;;;;;;;;;5002154;28;20117;-82
2022/03/13 01:20:37;;;;;;;23.40;12.00;;;;;;;;;;4993944;28;20080;-82
2022/03/13 01:23:03;;;;;;;23.17;12.45;;;;;;;;;;4997179;28;20118;-82
2022/03/13 01:25:29;;;;;;;23.75;11.80;;;;;;;;;;4993155;28;20138;-82
2022/03/13 01:27:55;;;;;;;28.48;12.98;;;;;;;;;;4968057;28;20120;-82
2022/03/13 01:30:21;;;;;;;27.55;13.38;;;;;;;;;;4984724;28;20030;-82
2022/03/13 01:32:52;;;;;;;33.45;14.15;;;;;;;;;;4970068;28;20136;-82
2022/03/13 01:35:22;;;;;;;26.50;13.00;;;;;;;;;;4979631;28;20470;-82
2022/03/13 01:37:48;;;;;;;26.65;13.40;;;;;;;;;;4982697;28;20033;-82
2022/03/13 01:40:19;;;;;;;29.17;13.68;;;;;;;;;;4965714;28;20035;-82
2022/03/13 01:42:47;;;;;;;33.58;14.18;;;;;;;;;;4969473;28;20168;-82
2022/03/13 01:45:15;;;;;;;28.95;12.15;;;;;;;;;;4977495;28;20042;-83
2022/03/13 01:47:41;;;;;;;26.85;13.13;;;;;;;;;;4972542;28;20027;-82
2022/03/13 01:50:09;;;;;;;28.77;14.30;;;;;;;;;;4965056;28;20707;-82
2022/03/13 01:52:35;;;;;;;26.30;13.07;;;;;;;;;;4973631;28;20019;-82
2022/03/13 01:55:02;;;;;;;27.20;13.48;;;;;;;;;;4983726;28;20037;-82
2022/03/13 01:57:28;;;;;;;23.77;13.50;;;;;;;;;;4965939;28;20121;-82
2022/03/13 01:59:57;;;;;;;23.35;13.10;;;;;;;;;;4966526;28;20022;-82
2022/03/13 02:02:25;;;;;;;22.98;11.30;;;;;;;;;;4987463;28;20394;-82
2022/03/13 02:04:53;;;;;;;30.13;13.60;;;;;;;;;;4976503;28;20582;-82
2022/03/13 02:07:19;;;;;;;29.70;14.20;;;;;;;;;;4967130;28;20026;-82
2022/03/13 02:09:47;;;;;;;32.63;13.30;;;;;;;;;;4984229;28;20019;-82
2022/03/13 02:12:14;;;;;;;33.92;12.90;;;;;;;;;;4980493;28;20034;-82
2022/03/13 02:14:40;;;;;;;28.80;12.52;;;;;;;;;;4981995;28;20494;-82
2022/03/13 02:17:06;;;;;;;23.42;12.77;;;;;;;;;;4967836;28;20042;-82
2022/03/13 02:19:32;;;;;;;23.85;12.88;;;;;;;;;;4965323;28;20498;-82
2022/03/13 02:21:59;;;;;;;26.45;12.52;;;;;;;;;;4964114;28;20031;-81
2022/03/13 02:24:26;;;;;;;25.92;11.75;;;;;;;;;;4981267;28;20093;-82
2022/03/13 02:27:00;;;;;;;24.63;11.98;;;;;;;;;;4977819;28;20536;-82
2022/03/13 02:29:26;;;;;;;25.67;12.70;;;;;;;;;;4962188;28;20033;-82
2022/03/13 02:31:53;;;;;;;23.90;13.45;;;;;;;;;;4978892;28;20607;-82
2022/03/13 02:34:19;;;;;;;28.48;13.15;;;;;;;;;;4983079;28;20148;-82
2022/03/13 02:36:51;;;;;;;23.98;12.35;;;;;;;;;;4979077;28;20042;-82
2022/03/13 02:39:18;;;;;;;26.52;12.93;;;;;;;;;;4964099;28;20035;-82
2022/03/13 02:41:45;;;;;;;27.08;13.30;;;;;;;;;;4964566;28;20034;-82
2022/03/13 02:44:13;;;;;;;25.90;11.95;;;;;;;;;;4963213;28;20418;-82
2022/03/13 02:46:57;;;;;;;29.10;13.00;;;;;;;;;;4976881;28;20030;-82
2022/03/13 02:49:24;;;;;;;24.45;12.57;;;;;;;;;;4976653;28;20026;-82
2022/03/13 02:51:52;;;;;;;25.58;13.05;;;;;;;;;;4981045;28;20068;-82
2022/03/13 02:54:18;;;;;;;26.98;14.02;;;;;;;;;;4979866;28;20116;-82
2022/03/13 02:56:46;;;;;;;30.60;13.52;;;;;;;;;;4986572;28;20498;-82
2022/03/13 02:59:12;;;;;;;25.42;13.32;;;;;;;;;;4976359;28;20490;-82
2022/03/13 03:01:39;;;;;;;24.80;12.98;;;;;;;;;;4974649;28;20061;-82
2022/03/13 03:04:05;;;;;;;28.67;13.63;;;;;;;;;;4964019;28;20034;-82
2022/03/13 03:06:32;;;;;;;27.40;13.88;;;;;;;;;;4983349;28;20160;-82
2022/03/13 03:09:03;;;;;;;25.45;13.05;;;;;;;;;;4965749;28;20111;-82
2022/03/13 03:11:33;;;;;;;27.30;13.38;;;;;;;;;;4967336;28;20033;-82
2022/03/13 03:13:59;;;;;;;23.35;12.80;;;;;;;;;;4962132;28;20034;-82
2022/03/13 03:16:25;;;;;;;28.13;12.93;;;;;;;;;;4981705;28;20494;-82
2022/03/13 03:18:51;;;;;;;28.67;13.95;;;;;;;;;;4965467;28;20072;-82
2022/03/13 03:21:17;;;;;;;25.15;14.10;;;;;;;;;;4982553;28;20524;-82
2022/03/13 03:23:43;;;;;;;26.98;13.02;;;;;;;;;;4979461;28;20726;-82
2022/03/13 03:26:21;;;;;;;27.23;11.57;;;;;;;;;;4997284;28;20081;-82
2022/03/13 03:28:48;;;;;;;26.42;13.25;;;;;;;;;;4982858;28;20484;-82
2022/03/13 03:31:14;;;;;;;28.20;13.38;;;;;;;;;;4989336;28;20030;-82
2022/03/13 03:33:40;;;;;;;26.13;12.43;;;;;;;;;;5001910;28;20067;-82
2022/03/13 03:36:06;;;;;;;24.98;13.35;;;;;;;;;;4987549;28;20030;-82
2022/03/13 03:38:32;;;;;;;24.20;13.68;;;;;;;;;;4990466;28;20048;-82
2022/03/13 03:40:58;;;;;;;23.38;12.52;;;;;;;;;;4990652;28;20034;-82
2022/03/13 03:43:25;;;;;;;26.60;13.82;;;;;;;;;;5002859;28;20030;-82
2022/03/13 03:45:51;;;;;;;27.55;13.90;;;;;;;;;;4988985;28;20572;-82
2022/03/13 03:48:20;;;;;;;28.33;13.02;;;;;;;;;;5001512;28;20034;-82
2022/03/13 03:50:46;;;;;;;23.70;13.40;;;;;;;;;;5001351;28;20036;-83
2022/03/13 03:53:12;;;;;;;27.15;13.07;;;;;;;;;;4987765;28;20034;-82
2022/03/13 03:55:38;;;;;;;30.20;13.48;;;;;;;;;;4994663;28;20040;-82
2022/03/13 03:58:04;;;;;;;27.40;13.48;;;;;;;;;;4995443;28;20794;-82
2022/03/13 04:00:31;;;;;;;25.00;14.00;;;;;;;;;;5004561;28;20470;-82
2022/03/13 04:02:57;;;;;;;28.98;13.23;;;;;;;;;;4987463;28;20386;-82
2022/03/13 04:05:23;;;;;;;27.75;13.90;;;;;;;;;;5003257;28;20483;-82
2022/03/13 04:07:49;;;;;;;27.67;13.40;;;;;;;;;;4990047;28;20061;-82
2022/03/13 04:10:15;;;;;;;29.58;13.25;;;;;;;;;;4977313;28;20029;-83
2022/03/13 04:12:41;;;;;;;26.80;13.38;;;;;;;;;;5000001;28;20037;-82
2022/03/13 04:15:08;;;;;;;30.17;14.85;;;;;;;;;;4985109;28;20034;-82
2022/03/13 04:17:35;;;;;;;30.15;14.18;;;;;;;;;;4986926;28;20080;-82
2022/03/13 04:20:03;;;;;;;27.02;13.93;;;;;;;;;;4997629;28;20040;-82
2022/03/13 04:22:29;;;;;;;30.20;14.85;;;;;;;;;;5001259;28;20390;-82
2022/03/13 04:24:55;;;;;;;29.30;14.80;;;;;;;;;;4988149;28;20034;-82
2022/03/13 04:27:35;;;;;;;32.55;13.48;;;;;;;;;;4994277;28;20107;-82
2022/03/13 04:30:01;;;;;;;29.88;14.07;;;;;;;;;;4989107;28;20032;-82
2022/03/13 04:32:27;;;;;;;28.80;14.02;;;;;;;;;;5001903;28;20484;-82
2022/03/13 04:34:53;;;;;;;27.90;13.48;;;;;;;;;;4983175;28;20848;-81
2022/03/13 04:37:20;;;;;;;30.40;14.05;;;;;;;;;;4991472;28;20069;-82
2022/03/13 04:39:51;;;;;;;26.45;13.23;;;;;;;;;;4981877;28;20079;-82
2022/03/13 04:42:18;;;;;;;28.90;13.25;;;;;;;;;;5000397;28;20401;-82
2022/03/13 04:44:44;;;;;;;32.08;15.05;;;;;;;;;;4976908;28;20038;-82
2022/03/13 04:47:11;;;;;;;29.30;14.57;;;;;;;;;;4989271;28;20030;-82
2022/03/13 04:49:37;;;;;;;27.65;13.60;;;;;;;;;;4985467;28;20026;-82
2022/03/13 04:52:04;;;;;;;29.95;13.90;;;;;;;;;;4988880;28;20029;-82
2022/03/13 04:54:30;;;;;;;31.58;15.52;;;;;;;;;;5002572;28;20060;-82
2022/03/13 04:56:56;;;;;;;32.80;13.68;;;;;;;;;;4995338;28;20042;-82
2022/03/13 04:59:22;;;;;;;27.33;12.98;;;;;;;;;;5000288;28;20026;-82
2022/03/13 05:01:48;;;;;;;29.67;12.88;;;;;;;;;;4986929;28;20037;-82
2022/03/13 05:04:14;;;;;;;26.52;13.57;;;;;;;;;;4988975;28;20036;-82
2022/03/13 05:06:43;;;;;;;25.10;12.48;;;;;;;;;;5004698;28;20084;-82
2022/03/13 05:09:09;;;;;;;26.77;13.38;;;;;;;;;;4995906;28;20079;-82
2022/03/13 05:11:35;;;;;;;26.63;13.50;;;;;;;;;;4996543;28;20675;-82
2022/03/13 05:14:01;;;;;;;25.50;12.55;;;;;;;;;;4985610;28;20049;-82
2022/03/13 05:16:28;;;;;;;24.30;12.82;;;;;;;;;;4999120;28;20033;-82
2022/03/13 05:18:54;;;;;;;23.80;12.60;;;;;;;;;;4982633;28;20042;-82
2022/03/13 05:21:20;;;;;;;23.83;12.60;;;;;;;;;;4988072;28;20037;-82
2022/03/13 05:23:46;;;;;;;25.52;13.07;;;;;;;;;;4985191;28;20029;-82
2022/03/13 05:26:12;;;;;;;30.50;13.32;;;;;;;;;;4995254;28;20125;-82
2022/03/13 05:28:39;;;;;;;33.00;14.23;;;;;;;;;;4997154;28;20497;-82
2022/03/13 05:31:05;;;;;;;30.20;14.63;;;;;;;;;;4985864;28;20030;-82
2022/03/13 05:33:31;;;;;;;27.67;12.73;;;;;;;;;;4986458;28;20473;-82
2022/03/13 05:35:59;;;;;;;25.23;12.70;;;;;;;;;;4995824;28;20070;-82
2022/03/13 05:38:25;;;;;;;28.60;12.50;;;;;;;;;;4985914;28;20033;-82
2022/03/13 05:40:52;;;;;;;27.98;12.73;;;;;;;;;;4983482;28;20026;-82
2022/03/13 05:43:24;;;;;;;26.88;12.88;;;;;;;;;;4999706;28;20033;-82
2022/03/13 05:45:50;;;;;;;26.73;13.30;;;;;;;;;;4997336;28;20402;-82
2022/03/13 05:48:18;;;;;;;31.45;12.43;;;;;;;;;;4977046;28;20426;-82
2022/03/13 05:50:44;;;;;;;22.95;12.52;;;;;;;;;;4998417;28;20029;-82
2022/03/13 05:53:11;;;;;;;24.08;12.13;;;;;;;;;;5000828;28;20540;-82
2022/03/13 05:55:37;;;;;;;25.48;13.13;;;;;;;;;;4983850;28;20076;-82
2022/03/13 05:58:03;;;;;;;23.95;12.80;;;;;;;;;;4998728;28;20029;-82
2022/03/13 06:00:32;;;;;;;26.02;11.93;;;;;;;;;;4999484;28;20037;-82
2022/03/13 06:02:59;;;;;;;24.38;11.98;;;;;;;;;;4983160;28;20034;-82
2022/03/13 06:05:25;;;;;;;25.67;12.65;;;;;;;;;;5001259;28;20026;-82
2022/03/13 06:07:51;;;;;;;29.70;13.55;;;;;;;;;;4981570;28;20602;-82
2022/03/13 06:10:18;;;;;;;28.20;13.20;;;;;;;;;;4999595;28;20029;-82
2022/03/13 06:12:44;;;;;;;29.05;12.25;;;;;;;;;;4999179;28;20026;-82
2022/03/13 06:15:15;;;;;;;24.95;12.52;;;;;;;;;;4985894;28;20721;-82
2022/03/13 06:17:42;;;;;;;22.98;12.27;;;;;;;;;;4991944;28;20121;-82
2022/03/13 06:20:13;;;;;;;21.50;11.73;;;;;;;;;;4990471;28;20484;-81
2022/03/13 06:22:39;;;;;;;23.05;12.48;;;;;;;;;;4999604;28;20041;-82
2022/03/13 06:25:10;;;;;;;26.00;11.07;;;;;;;;;;4982363;28;20038;-82
2022/03/13 06:27:37;;;;;;;23.58;11.65;;;;;;;;;;4986894;28;20654;-82
2022/03/13 06:30:13;;;;;;;21.20;11.60;;;;;;;;;;4978062;28;20036;-80
2022/03/13 06:32:39;;;;;;;24.92;12.57;;;;;;;;;;5000175;28;20513;-81
2022/03/13 06:35:05;;;;;;;24.30;12.30;;;;;;;;;;4984847;28;21641;-82
2022/03/13 06:37:32;;;;;;;25.52;12.23;;;;;;;;;;4995314;28;20026;-82
2022/03/13 06:39:58;;;;;;;28.00;12.55;;;;;;;;;;4995890;28;21388;-82
2022/03/13 06:42:24;;;;;;;23.90;12.25;;;;;;;;;;4996919;28;20425;-82
2022/03/13 06:44:50;;;;;;;30.27;12.38;;;;;;;;;;4983305;28;20048;-82
2022/03/13 06:47:16;;;;;;;24.02;12.13;;;;;;;;;;4984601;28;20137;-81
2022/03/13 06:49:43;;;;;;;22.88;12.32;;;;;;;;;;4987069;28;20145;-82
2022/03/13 06:52:09;;;;;;;27.75;11.40;;;;;;;;;;4982123;28;20030;-81
2022/03/13 06:54:35;;;;;;;23.27;12.38;;;;;;;;;;4996737;28;20537;-82
2022/03/13 06:57:01;;;;;;;27.00;11.52;;;;;;;;;;4995085;28;20421;-82
2022/03/13 06:59:27;;;;;;;24.40;11.40;;;;;;;;;;4991615;28;20478;-82
2022/03/13 07:01:53;;;;;;;26.98;11.82;;;;;;;;;;4995803;28;20540;-82
2022/03/13 07:04:19;;;;;;;24.98;12.25;;;;;;;;;;4988873;28;20670;-82
2022/03/13 07:06:46;;;;;;;26.42;11.85;;;;;;;;;;5003675;28;20036;-82
2022/03/13 07:09:12;;;;;;;24.10;11.90;;;;;;;;;;4992489;28;20030;-82
2022/03/13 07:11:42;;;;;;;24.95;11.57;;;;;;;;;;4988368;28;20026;-82
2022/03/13 07:14:11;;;;;;;20.92;11.70;;;;;;;;;;4989164;28;20512;-82
2022/03/13 07:16:37;;;;;;;20.88;11.27;;;;;;;;;;5005430;28;20614;-82
2022/03/13 07:19:03;;;;;;;27.52;12.98;;;;;;;;;;5003875;28;20084;-82
2022/03/13 07:21:29;;;;;;;26.80;11.65;;;;;;;;;;4985224;28;20540;-82
2022/03/13 07:23:56;;;;;;;23.30;12.13;;;;;;;;;;4998160;28;20099;-82
2022/03/13 07:26:22;;;;;;;22.67;11.10;;;;;;;;;;4986194;28;20564;-82
2022/03/13 07:28:48;;;;;;;25.38;12.00;;;;;;;;;;4987492;28;20470;-82
2022/03/13 07:31:14;;;;;;;21.40;11.57;;;;;;;;;;5001917;28;20604;-82
2022/03/13 07:33:40;;;;;;;30.88;11.40;;;;;;;;;;4989047;28;20057;-82
2022/03/13 07:36:06;;;;;;;22.88;11.43;;;;;;;;;;4987497;28;20346;-82
2022/03/13 07:38:32;;;;;;;21.67;11.30;;;;;;;;;;4981515;28;20038;-82
2022/03/13 07:40:58;;;;;;;27.27;11.73;;;;;;;;;;5002487;28;20065;-82
2022/03/13 07:43:24;;;;;;;23.35;11.77;;;;;;;;;;5000453;28;20072;-82
2022/03/13 07:45:50;;;;;;;21.83;11.27;;;;;;;;;;4986077;28;20085;-82
2022/03/13 07:48:16;;;;;;;25.20;10.75;;;;;;;;;;5004312;28;20034;-82
2022/03/13 07:50:42;;;;;;;22.10;11.32;;;;;;;;;;5001438;28;20485;-82
2022/03/13 07:53:08;;;;;;;23.23;10.98;;;;;;;;;;4986766;28;20052;-82
2022/03/13 07:55:34;;;;;;;20.15;10.30;;;;;;;;;;5004579;28;20033;-82
2022/03/13 07:58:00;;;;;;;20.25;10.95;;;;;;;;;;4987124;28;20049;-82
2022/03/13 08:00:26;;;;;;;18.95;10.32;;;;;;;;;;4985974;28;20046;-81
2022/03/13 08:02:54;;;;;;;17.30;10.27;;;;;;;;;;4998464;28;20449;-82
2022/03/13 08:05:21;;;;;;;21.88;10.98;;;;;;;;;;5003698;28;20129;-82
2022/03/13 08:07:49;;;;;;;26.70;11.15;;;;;;;;;;4981919;28;20026;-82
2022/03/13 08:10:24;;;;;;;22.60;10.80;;;;;;;;;;4984838;28;20101;-82
2022/03/13 08:12:53;;;;;;;23.80;11.90;;;;;;;;;;5002156;28;20045;-82
2022/03/13 08:15:20;;;;;;;21.90;10.50;;;;;;;;;;5001250;28;20076;-82
2022/03/13 08:17:46;;;;;;;22.67;11.40;;;;;;;;;;4988870;28;20037;-82
2022/03/13 08:20:13;;;;;;;22.25;11.05;;;;;;;;;;5004321;28;20036;-82
2022/03/13 08:22:39;;;;;;;18.27;10.40;;;;;;;;;;4984780;28;20038;-82
2022/03/13 08:25:06;;;;;;;20.48;10.57;;;;;;;;;;4984549;28;20034;-82
2022/03/13 08:27:34;;;;;;;24.13;10.77;;;;;;;;;;4977728;28;20081;-82
2022/03/13 08:30:00;;;;;;;31.27;10.73;;;;;;;;;;4978445;28;20470;-82
2022/03/13 08:32:26;;;;;;;20.45;10.48;;;;;;;;;;4964633;28;20376;-82
2022/03/13 08:34:52;;;;;;;20.52;10.57;;;;;;;;;;4982952;28;20721;-82
2022/03/13 08:37:18;;;;;;;22.25;10.52;;;;;;;;;;4959944;28;20026;-82
2022/03/13 08:39:44;;;;;;;22.80;11.25;;;;;;;;;;4967780;28;20122;-82
2022/03/13 08:42:11;;;;;;;22.50;10.60;;;;;;;;;;4981962;28;20485;-82
2022/03/13 08:44:37;;;;;;;21.70;9.70;;;;;;;;;;4962812;28;20105;-82
2022/03/13 08:47:04;;;;;;;21.25;11.43;;;;;;;;;;4982009;28;20027;-82
2022/03/13 08:49:30;;;;;;;18.52;9.93;;;;;;;;;;4985048;28;20026;-82
2022/03/13 08:51:56;;;;;;;23.20;11.15;;;;;;;;;;4974190;28;20523;-82
2022/03/13 08:54:22;;;;;;;20.27;11.10;;;;;;;;;;4980727;28;20549;-82
2022/03/13 08:56:48;;;;;;;25.08;10.93;;;;;;;;;;4963050;28;20095;-82
2022/03/13 08:59:21;;;;;;;20.63;11.27;;;;;;;;;;4964322;28;20172;-82
2022/03/13 09:01:50;;;;;;;18.67;10.60;;;;;;;;;;4961620;28;20559;-82
2022/03/13 09:04:23;;;;;;;19.33;9.45;;;;;;;;;;4977121;28;20043;-82
2022/03/13 09:06:49;;;;;;;20.67;10.43;;;;;;;;;;4966703;28;20117;-82
2022/03/13 09:09:18;;;;;;;18.42;10.13;;;;;;;;;;4966759;28;20034;-82
2022/03/13 09:11:47;;;;;;;21.58;10.35;;;;;;;;;;4974322;28;20050;-82
2022/03/13 09:14:13;;;;;;;27.63;10.77;;;;;;;;;;4964014;28;20027;-82
2022/03/13 09:16:41;;;;;;;19.23;9.82;;;;;;;;;;4979810;28;20045;-82
2022/03/13 09:19:08;;;;;;;23.75;11.60;;;;;;;;;;4960230;28;20053;-82
2022/03/13 09:21:38;;;;;;;20.65;11.80;;;;;;;;;;4963071;28;20596;-82
2022/03/13 09:24:12;;;;;;;23.13;11.02;;;;;;;;;;4965536;28;20050;-82
2022/03/13 09:26:45;;;;;;;19.33;10.60;;;;;;;;;;4963645;28;20399;-82
2022/03/13 09:29:11;;;;;;;18.05;10.75;;;;;;;;;;4980633;28;20038;-82
2022/03/13 09:31:37;;;;;;;20.83;11.45;;;;;;;;;;4965772;28;20731;-82
2022/03/13 09:34:03;;;;;;;19.33;11.23;;;;;;;;;;4962369;28;20034;-82
2022/03/13 09:36:29;;;;;;;17.33;10.52;;;;;;;;;;4980572;28;20113;-82
2022/03/13 09:38:55;;;;;;;21.77;11.05;;;;;;;;;;4960907;28;20049;-82
2022/03/13 09:41:21;;;;;;;24.25;11.18;;;;;;;;;;4979387;28;20130;-82
2022/03/13 09:43:48;;;;;;;18.95;10.20;;;;;;;;;;4966795;28;20152;-82
2022/03/13 09:46:17;;;;;;;22.92;10.63;;;;;;;;;;4980702;28;20066;-82
2022/03/13 09:48:44;;;;;;;21.05;10.48;;;;;;;;;;4963456;28;20026;-82
2022/03/13 09:51:10;;;;;;;24.23;11.07;;;;;;;;;;4963114;28;20121;-82
2022/03/13 09:53:37;;;;;;;17.25;10.75;;;;;;;;;;4973112;28;20701;-82
2022/03/13 09:56:05;;;;;;;20.23;11.02;;;;;;;;;;4982043;28;20103;-82
2022/03/13 09:58:31;;;;;;;19.85;10.90;;;;;;;;;;4965332;28;20022;-82
2022/03/13 10:00:58;;;;;;;18.98;11.02;;;;;;;;;;4980398;28;20085;-82
2022/03/13 10:03:24;;;;;;;17.83;10.88;;;;;;;;;;4963833;28;20034;-82
2022/03/13 10:05:51;;;;;;;18.38;10.60;;;;;;;;;;4962024;28;20033;-82
2022/03/13 10:08:18;;;;;;;19.70;11.57;;;;;;;;;;4976171;28;20117;-82
2022/03/13 10:10:45;;;;;;;21.98;12.00;;;;;;;;;;4976748;28;20042;-83
2022/03/13 10:13:13;;;;;;;23.40;11.23;;;;;;;;;;4983985;28;20074;-82
2022/03/13 10:15:50;;;;;;;19.85;10.73;;;;;;;;;;4966588;28;20119;-82
2022/03/13 10:18:21;;;;;;;20.23;11.48;;;;;;;;;;4963544;28;20034;-83
2022/03/13 10:20:48;;;;;;;20.42;11.55;;;;;;;;;;4981185;28;20061;-83
2022/03/13 10:23:19;;;;;;;19.58;11.15;;;;;;;;;;4964353;28;20478;-83
2022/03/13 10:25:47;;;;;;;20.02;11.38;;;;;;;;;;4981618;28;20061;-83
2022/03/13 10:28:22;;;;;;;18.58;12.23;;;;;;;;;;4995544;28;20243;-83
2022/03/13 10:31:01;;;;;;;19.63;11.82;;;;;;;;;;4995859;28;20026;-82
2022/03/13 10:33:28;;;;;;;18.27;11.13;;;;;;;;;;4998746;28;20026;-83
2022/03/13 10:36:14;;;;;;;17.95;11.15;;;;;;;;;;4982280;28;20507;-83
2022/03/13 10:38:40;;;;;;;19.52;12.68;;;;;;;;;;4996114;28;20029;-82
2022/03/13 10:41:10;;;;;;;21.05;12.57;;;;;;;;;;4984054;28;20660;-83
2022/03/13 10:43:52;;;;;;;25.98;13.52;;;;;;;;;;5001142;28;20018;-83
2022/03/13 10:46:31;;;;;;;19.13;11.88;;;;;;;;;;4996696;28;20112;-83
2022/03/13 10:48:59;;;;;;;26.98;14.50;;;;;;;;;;4988316;28;20026;-83
2022/03/13 10:51:35;;;;;;;19.13;12.40;;;;;;;;;;4980522;28;20153;-82
2022/03/13 10:54:02;;;;;;;21.60;12.65;;;;;;;;;;4995506;28;20460;-83
2022/03/13 10:56:28;;;;;;;20.33;11.65;;;;;;;;;;4998853;28;20034;-83
2022/03/13 10:58:54;;;;;;;19.52;12.10;;;;;;;;;;4985864;28;20026;-82
2022/03/13 11:01:22;;;;;;;18.80;12.60;;;;;;;;;;4977566;28;20030;-82
2022/03/13 11:03:50;;;;;;;21.63;12.88;;;;;;;;;;4984243;28;20044;-82
2022/03/13 11:06:16;;;;;;;20.15;10.93;;;;;;;;;;4985205;28;20496;-83
2022/03/13 11:08:42;;;;;;;19.52;11.80;;;;;;;;;;5001387;28;20034;-83
2022/03/13 11:11:16;;;;;;;23.63;12.75;;;;;;;;;;4990739;28;20033;-84
2022/03/13 11:13:46;;;;;;;21.90;12.60;;;;;;;;;;4977101;28;20060;-83
2022/03/13 11:16:17;;;;;;;21.48;13.30;;;;;;;;;;4998459;28;20486;-81
2022/03/13 11:18:44;;;;;;;18.42;11.50;;;;;;;;;;4980175;28;20027;-83
2022/03/13 11:21:10;;;;;;;22.23;11.88;;;;;;;;;;4997320;28;20029;-83
2022/03/13 11:23:36;;;;;;;18.70;11.80;;;;;;;;;;4998460;28;20049;-82
2022/03/13 11:26:03;;;;;;;18.25;12.43;;;;;;;;;;4987086;28;20118;-84
2022/03/13 11:28:37;;;;;;;22.25;12.65;;;;;;;;;;5001262;28;20056;-83
2022/03/13 11:31:04;;;;;;;20.02;12.73;;;;;;;;;;4999115;28;20394;-83
2022/03/13 11:33:31;;;;;;;20.95;11.63;;;;;;;;;;4997564;28;20022;-83
2022/03/13 11:36:16;;;;;;;20.00;12.13;;;;;;;;;;4975269;28;20038;-83
2022/03/13 11:38:56;;;;;;;17.80;11.80;;;;;;;;;;4979270;28;20035;-82
2022/03/13 11:41:35;;;;;;;19.45;12.98;;;;;;;;;;4986110;28;20555;-82
2022/03/13 11:44:05;;;;;;;21.35;12.50;;;;;;;;;;4996743;28;20125;-82
2022/03/13 11:46:40;;;;;;;21.40;12.57;;;;;;;;;;4982585;28;20034;-82
2022/03/13 11:49:24;;;;;;;18.75;11.52;;;;;;;;;;4991197;28;20169;-82
2022/03/13 11:51:50;;;;;;;17.05;11.40;;;;;;;;;;4985684;28;20034;-83
2022/03/13 11:54:36;;;;;;;18.10;12.48;;;;;;;;;;4994461;28;20063;-83
2022/03/13 11:57:12;;;;;;;18.27;11.93;;;;;;;;;;4982526;28;20038;-83
2022/03/13 11:59:38;;;;;;;18.23;12.35;;;;;;;;;;5000721;28;20057;-83
2022/03/13 12:02:04;;;;;;;18.58;12.23;;;;;;;;;;4999501;28;20539;-83
2022/03/13 12:04:30;;;;;;;19.20;11.27;;;;;;;;;;5001759;28;20088;-82
2022/03/13 12:06:57;;;;;;;20.98;12.20;;;;;;;;;;5001899;28;20030;-83
2022/03/13 12:09:28;;;;;;;23.05;12.55;;;;;;;;;;4980935;28;20033;-83
2022/03/13 12:11:57;;;;;;;21.42;11.73;;;;;;;;;;5010644;28;20551;-83
2022/03/13 12:14:43;;;;;;;21.75;12.70;;;;;;;;;;4983312;28;20026;-83
2022/03/13 12:17:10;;;;;;;16.58;11.02;;;;;;;;;;4985004;28;20556;-83
2022/03/13 12:19:40;;;;;;;18.13;11.93;;;;;;;;;;4996114;28;20022;-82
2022/03/13 12:22:06;;;;;;;18.48;12.25;;;;;;;;;;5000509;28;20045;-83
2022/03/13 12:24:33;;;;;;;17.52;11.85;;;;;;;;;;4985124;28;20030;-83
2022/03/13 12:27:02;;;;;;;17.88;11.73;;;;;;;;;;4984887;28;20159;-83
2022/03/13 12:29:32;;;;;;;17.90;11.43;;;;;;;;;;4987746;28;20046;-83
2022/03/13 12:31:59;;;;;;;18.17;12.50;;;;;;;;;;4988613;28;20425;-82
2022/03/13 12:34:25;;;;;;;16.40;11.25;;;;;;;;;;4967673;28;20053;-83
2022/03/13 12:36:53;;;;;;;15.75;11.38;;;;;;;;;;4961934;28;20038;-84
2022/03/13 12:39:20;;;;;;;21.15;11.55;;;;;;;;;;4968296;28;20507;-85
2022/03/13 12:41:55;;;;;;;26.70;12.63;;;;;;;;;;4985664;28;20659;-82
2022/03/13 12:44:22;;;;;;;22.05;11.25;;;;;;;;;;4990104;28;20701;-82
2022/03/13 12:46:51;;;;;;;21.80;11.95;;;;;;;;;;4966964;28;20083;-82
2022/03/13 12:49:19;;;;;;;22.52;11.90;;;;;;;;;;4969566;28;20117;-83
2022/03/13 12:51:49;;;;;;;18.05;11.43;;;;;;;;;;4964483;28;20755;-83
2022/03/13 12:54:22;;;;;;;21.42;11.15;;;;;;;;;;4983874;28;20026;-82
2022/03/13 12:56:49;;;;;;;22.05;11.70;;;;;;;;;;4984128;28;20046;-83
2022/03/13 12:59:24;;;;;;;18.90;11.40;;;;;;;;;;4987635;28;20018;-83
2022/03/13 13:02:10;;;;;;;23.67;12.95;;;;;;;;;;4965783;28;20532;-83
2022/03/13 13:04:40;;;;;;;16.13;10.57;;;;;;;;;;4985236;28;20045;-83
2022/03/13 13:07:08;;;;;;;22.67;11.63;;;;;;;;;;4990529;28;20041;-83
2022/03/13 13:09:36;;;;;;;20.17;12.13;;;;;;;;;;4983025;28;20514;-83
2022/03/13 13:12:02;;;;;;;16.27;11.32;;;;;;;;;;4971532;28;20041;-83
2022/03/13 13:14:29;;;;;;;17.17;11.15;;;;;;;;;;4988173;28;20081;-83
2022/03/13 13:16:59;;;;;;;21.85;11.40;;;;;;;;;;4970798;28;20512;-83
2022/03/13 13:19:26;;;;;;;20.65;11.75;;;;;;;;;;4979919;28;20030;-82
2022/03/13 13:21:56;;;;;;;23.40;12.05;;;;;;;;;;4973363;28;20038;-82
2022/03/13 13:24:25;;;;;;;18.95;11.52;;;;;;;;;;4984455;28;20494;-82
2022/03/13 13:26:51;;;;;;;18.27;11.98;;;;;;;;;;4979261;28;20041;-82
2022/03/13 13:29:30;;;;;;;22.02;12.32;;;;;;;;;;4979275;28;20640;-82
2022/03/13 13:32:16;;;;;;;16.90;11.63;;;;;;;;;;4980658;28;20450;-82
2022/03/13 13:34:44;;;;;;;20.98;11.88;;;;;;;;;;4982989;28;20048;-83
2022/03/13 13:37:10;;;;;;;22.40;11.05;;;;;;;;;;4997870;28;20117;-82
2022/03/13 13:39:40;;;;;;;14.90;11.07;;;;;;;;;;4980352;28;20517;-83
2022/03/13 13:42:08;;;;;;;19.83;11.82;;;;;;;;;;4982167;28;20033;-83
2022/03/13 13:44:34;;;;;;;18.25;11.65;;;;;;;;;;4999123;28;20041;-83
2022/03/13 13:47:05;;;;;;;20.75;12.63;;;;;;;;;;4999392;28;20034;-84
2022/03/13 13:49:33;;;;;;;19.65;12.15;;;;;;;;;;4978677;28;20041;-83
2022/03/13 13:52:12;;;;;;;19.38;12.25;;;;;;;;;;4979524;28;20026;-83
2022/03/13 13:54:38;;;;;;;19.73;12.23;;;;;;;;;;4999771;28;20111;-83
2022/03/13 13:57:04;;;;;;;18.13;11.60;;;;;;;;;;5000167;28;20030;-83
2022/03/13 13:59:40;;;;;;;24.05;11.90;;;;;;;;;;4982626;28;20038;-83
2022/03/13 14:02:08;;;;;;;24.48;12.60;;;;;;;;;;4979913;28;20045;-84
2022/03/13 14:04:35;;;;;;;18.52;11.63;;;;;;;;;;4983224;28;20038;-83
2022/03/13 14:07:02;;;;;;;22.52;12.43;;;;;;;;;;4983473;28;20041;-83
2022/03/13 14:09:29;;;;;;;16.92;11.50;;;;;;;;;;4980562;28;20503;-83
2022/03/13 14:11:55;;;;;;;21.13;11.52;;;;;;;;;;4980762;28;22018;-83
2022/03/13 14:14:21;;;;;;;17.98;12.25;;;;;;;;;;4995859;28;20034;-82
2022/03/13 14:16:47;;;;;;;22.95;12.85;;;;;;;;;;4995876;28;20046;-83
2022/03/13 14:19:13;;;;;;;19.73;11.43;;;;;;;;;;4999696;28;20060;-84
2022/03/13 14:21:40;;;;;;;22.02;12.07;;;;;;;;;;4982431;28;20513;-84